createdAt,value
2023-04-30T00:00:02.691Z,19.00
2023-04-30T00:02:43.310Z,21.80
2023-04-30T00:04:37.062Z,21.70
2023-04-30T00:06:29.946Z,22.50
2023-04-30T00:08:23.049Z,20.60
2023-04-30T00:10:16.046Z,24.70
2023-04-30T00:12:08.893Z,23.60
2023-04-30T00:14:01.746Z,23.20
2023-04-30T00:15:54.560Z,22.10
2023-04-30T00:17:47.566Z,24.50
2023-04-30T00:19:40.482Z,23.30
2023-04-30T00:21:33.735Z,22.70
2023-04-30T00:23:26.582Z,27.20
2023-04-30T00:25:21.141Z,23.30
2023-04-30T00:27:14.130Z,23.80
2023-04-30T00:29:07.178Z,22.60
2023-04-30T00:31:00.127Z,24.00
2023-04-30T00:32:53.013Z,24.30
2023-04-30T00:34:46.217Z,21.90
2023-04-30T00:36:40.695Z,23.00
2023-04-30T00:38:33.578Z,23.40
2023-04-30T00:40:27.104Z,23.10
2023-04-30T00:42:19.955Z,24.60
2023-04-30T00:44:12.800Z,24.20
2023-04-30T00:46:06.873Z,23.60
2023-04-30T00:48:00.211Z,24.40
2023-04-30T00:49:54.181Z,25.80
2023-04-30T00:51:48.277Z,24.00
2023-04-30T00:53:41.543Z,23.90
2023-04-30T00:55:34.477Z,23.80
2023-04-30T00:57:28.661Z,21.70
2023-04-30T00:59:21.815Z,23.10
2023-04-30T01:01:15.434Z,21.30
2023-04-30T01:03:08.586Z,22.40
2023-04-30T01:05:02.896Z,24.70
2023-04-30T01:06:56.985Z,24.40
2023-04-30T01:08:50.346Z,22.90
2023-04-30T01:10:54.038Z,24.70
2023-04-30T01:12:55.904Z,22.00
2023-04-30T01:15:07.582Z,22.20
2023-04-30T01:17:08.637Z,22.00
2023-04-30T01:19:09.139Z,21.50
2023-04-30T01:21:05.587Z,20.50
2023-04-30T01:23:04.589Z,21.80
2023-04-30T01:25:08.486Z,21.40
2023-04-30T01:27:23.850Z,21.10
2023-04-30T01:29:19.658Z,24.80
2023-04-30T01:31:18.150Z,25.30
2023-04-30T01:33:12.144Z,21.70
2023-04-30T01:35:05.367Z,23.20
2023-04-30T01:37:35.690Z,20.30
2023-04-30T01:40:02.430Z,23.70
2023-04-30T01:42:07.779Z,24.20
2023-04-30T01:44:13.089Z,21.70
2023-04-30T01:46:20.415Z,24.20
2023-04-30T01:48:25.227Z,20.30
2023-04-30T01:50:24.133Z,19.00
2023-04-30T01:52:40.998Z,19.70
2023-04-30T01:54:49.247Z,20.20
2023-04-30T01:56:50.060Z,20.00
2023-04-30T01:58:43.623Z,20.80
2023-04-30T02:00:36.765Z,18.90
2023-04-30T02:02:29.817Z,19.00
2023-04-30T02:04:22.820Z,21.30
2023-04-30T02:06:16.075Z,20.40
2023-04-30T02:08:08.973Z,19.30
2023-04-30T02:10:01.826Z,20.10
2023-04-30T02:11:54.766Z,20.10
2023-04-30T02:13:47.719Z,20.50
2023-04-30T02:15:40.673Z,19.30
2023-04-30T02:17:34.039Z,19.30
2023-04-30T02:19:26.869Z,22.30
2023-04-30T02:21:19.707Z,18.20
2023-04-30T02:23:13.581Z,19.30
2023-04-30T02:25:07.348Z,22.60
2023-04-30T02:27:00.191Z,22.20
2023-04-30T02:28:53.034Z,19.60
2023-04-30T02:30:45.881Z,20.40
2023-04-30T02:32:38.769Z,19.00
2023-04-30T02:34:31.683Z,18.70
2023-04-30T02:36:24.522Z,22.20
2023-04-30T02:38:17.385Z,21.60
2023-04-30T02:40:11.040Z,19.50
2023-04-30T02:42:04.801Z,20.00
2023-04-30T02:43:57.745Z,17.00
2023-04-30T02:45:50.735Z,19.20
2023-04-30T02:47:43.576Z,18.80
2023-04-30T02:49:36.591Z,17.00
2023-04-30T02:51:29.539Z,19.10
2023-04-30T02:53:22.389Z,17.40
2023-04-30T02:55:15.236Z,18.70
2023-04-30T02:57:08.284Z,18.70
2023-04-30T02:59:01.638Z,18.60
2023-04-30T03:00:54.518Z,20.90
2023-04-30T03:02:47.697Z,16.40
2023-04-30T03:04:40.593Z,17.10
2023-04-30T03:06:33.862Z,18.40
2023-04-30T03:08:27.200Z,18.20
2023-04-30T03:10:20.040Z,20.50
2023-04-30T03:12:12.888Z,18.10
2023-04-30T03:14:05.840Z,17.00
2023-04-30T03:16:00.071Z,19.40
2023-04-30T03:17:53.132Z,20.00
2023-04-30T03:19:46.424Z,20.20
2023-04-30T03:21:39.290Z,17.70
2023-04-30T03:23:32.321Z,18.60
2023-04-30T03:25:25.276Z,22.70
2023-04-30T03:27:18.115Z,18.70
2023-04-30T03:29:11.170Z,16.70
2023-04-30T03:31:06.983Z,18.00
2023-04-30T03:33:00.335Z,18.30
2023-04-30T03:34:53.289Z,20.20
2023-04-30T03:36:46.239Z,17.30
2023-04-30T03:38:39.189Z,19.40
2023-04-30T03:40:32.039Z,18.70
2023-04-30T03:42:24.875Z,20.90
2023-04-30T03:44:17.724Z,16.20
2023-04-30T03:46:10.694Z,22.90
2023-04-30T03:48:03.682Z,19.50
2023-04-30T03:49:56.790Z,18.30
2023-04-30T03:51:49.935Z,16.40
2023-04-30T03:53:43.592Z,18.90
2023-04-30T03:55:36.750Z,16.50
2023-04-30T03:57:30.206Z,19.20
2023-04-30T03:59:23.461Z,18.80
2023-04-30T04:01:16.616Z,17.10
2023-04-30T04:03:10.027Z,16.70
2023-04-30T04:05:04.364Z,17.90
2023-04-30T04:06:57.512Z,19.10
2023-04-30T04:08:50.662Z,18.20
2023-04-30T04:10:43.926Z,18.00
2023-04-30T04:12:37.068Z,18.30
2023-04-30T04:14:30.431Z,18.30
2023-04-30T04:16:23.561Z,19.00
2023-04-30T04:18:16.736Z,17.00
2023-04-30T04:20:11.915Z,21.70
2023-04-30T04:22:06.936Z,19.00
2023-04-30T04:23:59.737Z,18.60
2023-04-30T04:25:53.444Z,17.90
2023-04-30T04:27:46.799Z,19.80
2023-04-30T04:29:39.647Z,16.90
2023-04-30T04:31:32.636Z,17.70
2023-04-30T04:33:25.645Z,17.40
2023-04-30T04:35:19.511Z,17.30
2023-04-30T04:37:12.366Z,16.20
2023-04-30T04:39:05.308Z,15.30
2023-04-30T04:40:58.149Z,15.50
2023-04-30T04:42:54.068Z,15.00
2023-04-30T04:44:47.229Z,19.90
2023-04-30T04:46:42.438Z,20.40
2023-04-30T04:48:35.582Z,17.40
2023-04-30T04:50:28.629Z,15.80
2023-04-30T04:52:21.574Z,15.80
2023-04-30T04:54:14.519Z,15.70
2023-04-30T04:56:07.776Z,17.80
2023-04-30T04:58:00.617Z,16.60
2023-04-30T04:59:53.774Z,17.50
2023-04-30T05:01:46.980Z,16.40
2023-04-30T05:03:39.960Z,18.10
2023-04-30T05:05:33.544Z,17.10
2023-04-30T05:07:26.383Z,21.60
2023-04-30T05:09:19.335Z,20.80
2023-04-30T05:11:14.141Z,17.10
2023-04-30T05:13:08.407Z,13.80
2023-04-30T05:15:01.456Z,20.80
2023-04-30T05:16:54.408Z,17.00
2023-04-30T05:18:47.208Z,15.30
2023-04-30T05:20:39.992Z,13.60
2023-04-30T05:22:32.841Z,14.50
2023-04-30T05:24:25.887Z,14.30
2023-04-30T05:26:18.733Z,19.10
2023-04-30T05:28:11.989Z,17.60
2023-04-30T05:30:05.457Z,16.90
2023-04-30T05:31:58.368Z,16.90
2023-04-30T05:33:51.346Z,21.00
2023-04-30T05:35:44.307Z,16.00
2023-04-30T05:37:37.143Z,14.90
2023-04-30T05:39:31.061Z,17.80
2023-04-30T05:41:23.955Z,14.50
2023-04-30T05:43:16.717Z,14.20
2023-04-30T05:45:12.322Z,14.60
2023-04-30T05:47:05.359Z,16.60
2023-04-30T05:48:58.410Z,12.20
2023-04-30T05:50:51.209Z,16.10
2023-04-30T05:52:44.107Z,14.60
2023-04-30T05:54:37.025Z,14.00
2023-04-30T05:56:29.896Z,14.20
2023-04-30T05:58:22.956Z,14.00
2023-04-30T06:00:16.320Z,13.40
2023-04-30T06:02:09.932Z,13.70
2023-04-30T06:04:04.978Z,14.20
2023-04-30T06:05:57.927Z,12.00
2023-04-30T06:07:50.772Z,13.70
2023-04-30T06:09:43.605Z,12.30
2023-04-30T06:11:37.581Z,10.50
2023-04-30T06:13:31.659Z,15.70
2023-04-30T06:15:24.514Z,12.70
2023-04-30T06:17:17.589Z,13.20
2023-04-30T06:19:10.504Z,14.60
2023-04-30T06:21:03.561Z,11.00
2023-04-30T06:22:56.395Z,13.00
2023-04-30T06:24:49.246Z,9.30
2023-04-30T06:26:42.018Z,11.20
2023-04-30T06:28:34.844Z,12.00
2023-04-30T06:30:27.695Z,15.60
2023-04-30T06:32:21.039Z,12.90
2023-04-30T06:34:13.884Z,13.90
2023-04-30T06:36:06.834Z,11.80
2023-04-30T06:37:59.675Z,12.80
2023-04-30T06:39:52.489Z,13.50
2023-04-30T06:41:47.418Z,12.00
2023-04-30T06:43:40.725Z,12.90
2023-04-30T06:45:33.926Z,13.70
2023-04-30T06:47:26.790Z,14.40
2023-04-30T06:49:19.722Z,11.00
2023-04-30T06:51:12.677Z,14.70
2023-04-30T06:53:05.719Z,12.60
2023-04-30T06:54:58.563Z,11.60
2023-04-30T06:56:51.412Z,9.70
2023-04-30T06:58:45.296Z,11.30
2023-04-30T07:00:38.109Z,10.10
2023-04-30T07:02:31.022Z,17.00
2023-04-30T07:04:24.732Z,12.20
2023-04-30T07:06:17.601Z,10.70
2023-04-30T07:08:10.529Z,10.30
2023-04-30T07:10:03.985Z,15.60
2023-04-30T07:11:58.788Z,18.80
2023-04-30T07:13:51.766Z,11.00
2023-04-30T07:15:45.530Z,26.50
2023-04-30T07:17:38.567Z,13.60
2023-04-30T07:19:32.760Z,18.70
2023-04-30T07:21:26.281Z,22.50
2023-04-30T07:23:19.133Z,18.00
2023-04-30T07:25:15.250Z,22.10
2023-04-30T07:27:08.103Z,12.80
2023-04-30T07:29:00.944Z,14.10
2023-04-30T07:30:53.713Z,14.10
2023-04-30T07:32:47.878Z,12.30
2023-04-30T07:34:40.813Z,13.10
2023-04-30T07:36:33.657Z,11.90
2023-04-30T07:38:26.504Z,11.70
2023-04-30T07:40:34.533Z,13.70
2023-04-30T07:42:28.179Z,10.40
2023-04-30T07:44:21.823Z,8.90
2023-04-30T07:46:14.679Z,8.90
2023-04-30T07:48:07.549Z,10.30
2023-04-30T07:50:00.678Z,10.90
2023-04-30T07:51:53.524Z,7.80
2023-04-30T07:53:47.163Z,8.90
2023-04-30T07:55:40.080Z,11.20
2023-04-30T07:57:32.987Z,11.30
2023-04-30T07:59:26.045Z,13.00
2023-04-30T08:01:18.882Z,10.40
2023-04-30T08:03:12.470Z,9.20
2023-04-30T08:05:06.102Z,10.70
2023-04-30T08:06:58.956Z,11.50
2023-04-30T08:08:51.801Z,12.90
2023-04-30T08:10:44.658Z,10.50
2023-04-30T08:12:37.713Z,14.00
2023-04-30T08:14:33.215Z,13.50
2023-04-30T08:16:26.202Z,11.60
2023-04-30T08:18:19.308Z,9.60
2023-04-30T08:20:12.361Z,11.50
2023-04-30T08:22:06.214Z,10.10
2023-04-30T08:23:59.176Z,8.10
2023-04-30T08:25:52.753Z,7.80
2023-04-30T08:27:46.847Z,10.10
2023-04-30T08:29:40.798Z,10.60
2023-04-30T08:31:33.984Z,9.70
2023-04-30T08:33:26.991Z,9.30
2023-04-30T08:35:21.166Z,10.70
2023-04-30T08:37:14.189Z,8.10
2023-04-30T08:39:08.094Z,10.20
2023-04-30T08:41:13.527Z,10.30
2023-04-30T08:43:11.838Z,9.00
2023-04-30T08:45:06.886Z,8.60
2023-04-30T08:47:01.661Z,6.80
2023-04-30T08:48:54.638Z,5.80
2023-04-30T08:50:47.431Z,8.40
2023-04-30T08:52:40.741Z,9.20
2023-04-30T08:54:35.630Z,7.50
2023-04-30T08:56:31.353Z,9.10
2023-04-30T08:58:24.292Z,10.00
2023-04-30T09:00:17.509Z,8.20
2023-04-30T09:02:10.873Z,8.80
2023-04-30T09:04:04.997Z,8.10
2023-04-30T09:05:58.479Z,9.50
2023-04-30T09:08:02.468Z,8.60
2023-04-30T09:09:58.162Z,9.00
2023-04-30T09:11:51.127Z,11.00
2023-04-30T09:13:44.057Z,10.30
2023-04-30T09:15:39.410Z,10.30
2023-04-30T09:17:34.501Z,8.80
2023-04-30T09:19:29.982Z,10.40
2023-04-30T09:21:36.575Z,9.90
2023-04-30T09:23:30.846Z,8.70
2023-04-30T09:25:40.169Z,9.00
2023-04-30T09:27:33.421Z,7.40
2023-04-30T09:29:37.213Z,7.20
2023-04-30T09:31:30.184Z,8.00
2023-04-30T09:33:23.214Z,4.80
2023-04-30T09:35:37.249Z,8.20
2023-04-30T09:37:38.009Z,7.20
2023-04-30T09:39:30.986Z,5.80
2023-04-30T09:41:26.866Z,7.80
2023-04-30T09:43:19.790Z,6.80
2023-04-30T09:45:12.635Z,7.70
2023-04-30T09:47:10.907Z,6.90
2023-04-30T09:49:05.965Z,6.90
2023-04-30T09:50:58.852Z,7.80
2023-04-30T09:53:05.610Z,6.60
2023-04-30T09:54:58.884Z,7.60
2023-04-30T09:56:54.389Z,6.90
2023-04-30T09:58:52.528Z,5.30
2023-04-30T10:02:40.047Z,5.90
2023-04-30T10:04:42.382Z,5.60
2023-04-30T10:06:36.477Z,6.50
2023-04-30T10:08:37.550Z,6.70
2023-04-30T10:10:32.164Z,7.40
2023-04-30T10:12:31.152Z,6.00
2023-04-30T10:14:29.733Z,7.30
2023-04-30T10:16:45.535Z,6.30
2023-04-30T10:18:40.831Z,9.20
2023-04-30T10:20:39.404Z,15.50
2023-04-30T10:22:35.005Z,10.60
2023-04-30T10:24:28.161Z,7.80
2023-04-30T10:26:21.301Z,14.80
2023-04-30T10:28:14.571Z,10.60
2023-04-30T10:30:10.825Z,11.40
2023-04-30T10:32:05.444Z,10.50
2023-04-30T10:34:35.360Z,10.20
2023-04-30T10:36:42.520Z,9.50
2023-04-30T10:38:37.934Z,11.30
2023-04-30T10:40:37.097Z,9.70
2023-04-30T10:42:29.918Z,10.80
2023-04-30T10:44:22.964Z,8.00
2023-04-30T10:46:25.885Z,11.10
2023-04-30T10:48:27.048Z,8.80
2023-04-30T10:50:23.738Z,7.30
2023-04-30T10:52:27.856Z,9.00
2023-04-30T10:54:31.759Z,8.10
2023-04-30T10:56:34.833Z,5.70
2023-04-30T10:58:31.073Z,8.40
2023-04-30T11:00:29.463Z,7.00
2023-04-30T11:02:22.423Z,7.30
2023-04-30T11:04:16.076Z,6.10
2023-04-30T11:06:20.105Z,6.10
2023-04-30T11:08:13.221Z,6.30
2023-04-30T11:10:08.577Z,8.00
2023-04-30T11:12:11.935Z,6.40
2023-04-30T11:14:04.858Z,9.80
2023-04-30T11:16:04.456Z,9.50
2023-04-30T11:17:59.615Z,7.90
2023-04-30T11:19:54.301Z,8.00
2023-04-30T11:22:06.145Z,6.90
2023-04-30T11:24:04.305Z,9.80
2023-04-30T11:27:52.770Z,7.00
2023-04-30T11:29:47.022Z,6.60
2023-04-30T11:31:40.029Z,7.40
2023-04-30T11:33:34.990Z,7.50
2023-04-30T11:35:28.865Z,11.10
2023-04-30T11:37:30.639Z,8.20
2023-04-30T11:39:24.901Z,10.50
2023-04-30T11:41:17.743Z,10.50
2023-04-30T11:43:29.954Z,8.30
2023-04-30T11:45:23.704Z,7.70
2023-04-30T11:47:16.684Z,7.90
2023-04-30T11:49:09.626Z,10.30
2023-04-30T11:51:06.860Z,8.50
2023-04-30T11:53:05.454Z,8.50
2023-04-30T11:55:00.428Z,10.10
2023-04-30T11:56:53.477Z,8.40
2023-04-30T11:58:47.866Z,7.20
2023-04-30T12:00:41.016Z,9.30
2023-04-30T12:02:34.071Z,9.20
2023-04-30T12:04:27.636Z,7.50
2023-04-30T12:06:26.200Z,7.70
2023-04-30T12:08:19.989Z,8.70
2023-04-30T12:10:13.137Z,8.80
2023-04-30T12:12:06.282Z,11.20
2023-04-30T12:14:10.722Z,11.10
2023-04-30T12:16:03.868Z,13.20
2023-04-30T12:17:59.007Z,8.00
2023-04-30T12:19:53.307Z,10.10
2023-04-30T12:21:48.634Z,7.70
2023-04-30T12:23:42.202Z,8.10
2023-04-30T12:25:45.584Z,7.30
2023-04-30T12:27:38.577Z,7.10
2023-04-30T12:29:31.488Z,9.30
2023-04-30T12:31:24.559Z,9.80
2023-04-30T12:33:19.031Z,7.30
2023-04-30T12:35:16.884Z,7.10
2023-04-30T12:37:10.256Z,6.60
2023-04-30T12:39:07.683Z,7.30
2023-04-30T12:41:05.049Z,8.20
2023-04-30T12:43:05.357Z,7.10
2023-04-30T12:44:58.213Z,7.60
2023-04-30T12:46:58.312Z,8.70
2023-04-30T12:48:51.175Z,8.70
2023-04-30T12:50:58.919Z,7.40
2023-04-30T12:52:51.824Z,8.10
2023-04-30T12:54:44.662Z,7.80
2023-04-30T12:56:38.944Z,7.10
2023-04-30T12:58:31.890Z,7.20
2023-04-30T13:00:25.350Z,8.40
2023-04-30T13:02:18.244Z,10.50
2023-04-30T13:04:11.354Z,9.60
2023-04-30T13:06:05.238Z,8.70
2023-04-30T13:08:03.617Z,8.60
2023-04-30T13:09:56.711Z,10.90
2023-04-30T13:11:50.945Z,11.80
2023-04-30T13:13:43.789Z,12.00
2023-04-30T13:15:36.977Z,15.80
2023-04-30T13:17:29.917Z,10.00
2023-04-30T13:19:22.777Z,8.10
2023-04-30T13:21:15.544Z,8.20
2023-04-30T13:23:08.411Z,8.10
2023-04-30T13:25:01.257Z,7.60
2023-04-30T13:26:54.404Z,8.80
2023-04-30T13:28:47.249Z,7.00
2023-04-30T13:30:41.226Z,8.10
2023-04-30T13:32:34.422Z,7.80
2023-04-30T13:34:27.526Z,6.40
2023-04-30T13:36:21.086Z,8.00
2023-04-30T13:38:13.934Z,8.50
2023-04-30T13:40:08.291Z,41.60
2023-04-30T13:42:01.880Z,12.70
2023-04-30T13:43:54.727Z,33.60
2023-04-30T13:45:47.580Z,12.70
2023-04-30T13:47:41.074Z,8.50
2023-04-30T13:49:36.750Z,8.30
2023-04-30T13:51:29.594Z,7.40
2023-04-30T13:53:22.855Z,7.20
2023-04-30T13:55:15.698Z,8.20
2023-04-30T13:57:08.664Z,7.80
2023-04-30T13:59:01.604Z,10.10
2023-04-30T14:00:54.584Z,6.80
2023-04-30T14:02:47.547Z,6.80
2023-04-30T14:04:41.722Z,6.20
2023-04-30T14:06:38.809Z,7.20
2023-04-30T14:08:33.914Z,7.50
2023-04-30T14:10:26.858Z,8.90
2023-04-30T14:12:21.648Z,5.20
2023-04-30T14:14:14.492Z,7.80
2023-04-30T14:16:07.731Z,7.40
2023-04-30T14:18:00.676Z,6.70
2023-04-30T14:19:53.855Z,7.90
2023-04-30T14:21:47.007Z,6.40
2023-04-30T14:23:40.064Z,7.50
2023-04-30T14:25:32.999Z,8.70
2023-04-30T14:27:26.353Z,8.50
2023-04-30T14:29:21.561Z,7.50
2023-04-30T14:31:14.814Z,7.20
2023-04-30T14:33:07.929Z,7.20
2023-04-30T14:35:00.912Z,7.90
2023-04-30T14:36:53.874Z,6.60
2023-04-30T14:38:46.724Z,7.80
2023-04-30T14:40:39.554Z,8.20
2023-04-30T14:42:33.423Z,6.10
2023-04-30T14:44:26.783Z,7.00
2023-04-30T14:46:19.929Z,6.00
2023-04-30T14:48:13.029Z,6.00
2023-04-30T14:50:06.463Z,8.70
2023-04-30T14:51:59.396Z,10.20
2023-04-30T14:53:52.239Z,7.50
2023-04-30T14:55:45.088Z,9.00
2023-04-30T14:57:38.054Z,8.20
2023-04-30T14:59:32.315Z,8.40
2023-04-30T15:01:27.201Z,6.80
2023-04-30T15:03:21.668Z,8.00
2023-04-30T15:05:14.638Z,8.40
2023-04-30T15:07:07.492Z,9.10
2023-04-30T15:09:01.458Z,8.30
2023-04-30T15:10:55.125Z,7.80
2023-04-30T15:12:48.187Z,8.10
2023-04-30T15:14:41.739Z,9.50
2023-04-30T15:16:35.210Z,10.80
2023-04-30T15:18:28.663Z,8.10
2023-04-30T15:20:21.510Z,9.30
2023-04-30T15:22:14.455Z,8.20
2023-04-30T15:24:07.296Z,8.70
2023-04-30T15:26:01.884Z,8.90
2023-04-30T15:27:55.161Z,8.10
2023-04-30T15:29:47.991Z,9.90
2023-04-30T15:31:40.843Z,6.10
2023-04-30T15:33:39.746Z,6.20
2023-04-30T15:35:32.768Z,8.50
2023-04-30T15:37:25.828Z,8.10
2023-04-30T15:39:19.216Z,9.60
2023-04-30T15:41:12.119Z,7.60
2023-04-30T15:43:05.992Z,8.40
2023-04-30T15:44:58.840Z,7.60
2023-04-30T15:46:52.344Z,8.50
2023-04-30T15:48:45.245Z,8.50
2023-04-30T15:50:38.090Z,9.10
2023-04-30T15:52:31.140Z,6.90
2023-04-30T15:54:23.989Z,9.50
2023-04-30T15:56:18.571Z,11.90
2023-04-30T15:58:11.371Z,10.70
2023-04-30T16:00:05.288Z,10.40
2023-04-30T16:02:04.725Z,13.50
2023-04-30T16:03:58.136Z,10.20
2023-04-30T16:05:51.708Z,9.80
2023-04-30T16:07:45.785Z,9.00
2023-04-30T16:09:39.163Z,7.60
2023-04-30T16:11:33.019Z,13.30
2023-04-30T16:13:26.072Z,13.10
2023-04-30T16:15:19.027Z,8.60
2023-04-30T16:17:12.272Z,9.10
2023-04-30T16:19:07.594Z,7.80
2023-04-30T16:21:01.662Z,9.20
2023-04-30T16:22:55.811Z,11.90
2023-04-30T16:24:48.673Z,11.20
2023-04-30T16:26:41.517Z,12.40
2023-04-30T16:28:37.124Z,10.20
2023-04-30T16:30:30.097Z,10.60
2023-04-30T16:32:23.026Z,9.50
2023-04-30T16:34:15.870Z,10.50
2023-04-30T16:36:09.020Z,10.70
2023-04-30T16:38:02.693Z,9.50
2023-04-30T16:39:56.741Z,10.80
2023-04-30T16:41:50.019Z,6.50
2023-04-30T16:43:44.022Z,10.40
2023-04-30T16:45:36.981Z,7.00
2023-04-30T16:47:30.226Z,8.70
2023-04-30T16:49:23.247Z,10.00
2023-04-30T16:51:16.192Z,10.30
2023-04-30T16:53:10.840Z,9.90
2023-04-30T16:55:05.249Z,13.90
2023-04-30T16:56:58.108Z,27.20
2023-04-30T16:58:51.054Z,17.70
2023-04-30T17:00:44.114Z,10.90
2023-04-30T17:02:38.555Z,9.80
2023-04-30T17:04:31.670Z,10.10
2023-04-30T17:06:24.765Z,10.20
2023-04-30T17:08:17.838Z,11.30
2023-04-30T17:10:12.032Z,9.10
2023-04-30T17:12:05.684Z,9.00
2023-04-30T17:13:58.545Z,14.50
2023-04-30T17:15:51.519Z,11.70
2023-04-30T17:17:44.523Z,10.20
2023-04-30T17:19:37.477Z,7.50
2023-04-30T17:21:30.423Z,8.40
2023-04-30T17:23:23.471Z,8.30
2023-04-30T17:25:16.525Z,8.90
2023-04-30T17:27:09.678Z,9.10
2023-04-30T17:29:02.629Z,9.00
2023-04-30T17:30:55.697Z,10.30
2023-04-30T17:32:48.712Z,7.90
2023-04-30T17:34:42.495Z,8.30
2023-04-30T17:36:35.343Z,9.70
2023-04-30T17:38:28.388Z,9.70
2023-04-30T17:40:21.238Z,8.60
2023-04-30T17:42:14.084Z,9.10
2023-04-30T17:44:06.930Z,9.60
2023-04-30T17:46:00.025Z,10.70
2023-04-30T17:47:52.987Z,10.80
2023-04-30T17:49:46.093Z,8.80
2023-04-30T17:51:39.153Z,9.40
2023-04-30T17:53:32.356Z,8.80
2023-04-30T17:55:25.962Z,10.60
2023-04-30T17:57:18.804Z,9.40
2023-04-30T17:59:12.778Z,10.80
2023-04-30T18:01:05.616Z,11.20
2023-04-30T18:02:58.709Z,10.20
2023-04-30T18:04:53.030Z,13.40
2023-04-30T18:06:47.506Z,11.80
2023-04-30T18:08:40.376Z,14.40
2023-04-30T18:10:33.235Z,13.40
2023-04-30T18:12:26.241Z,13.00
2023-04-30T18:14:19.120Z,14.00
2023-04-30T18:16:13.483Z,13.30
2023-04-30T18:18:06.675Z,10.10
2023-04-30T18:19:59.603Z,11.40
2023-04-30T18:21:53.268Z,10.30
2023-04-30T18:23:46.223Z,12.10
2023-04-30T18:25:40.390Z,14.20
2023-04-30T18:27:34.058Z,12.90
2023-04-30T18:29:27.205Z,10.80
2023-04-30T18:31:20.040Z,10.80
2023-04-30T18:33:13.076Z,15.20
2023-04-30T18:35:06.682Z,15.90
2023-04-30T18:36:59.616Z,13.30
2023-04-30T18:38:52.665Z,16.00
2023-04-30T18:40:45.525Z,19.10
2023-04-30T18:42:38.788Z,18.20
2023-04-30T18:44:32.337Z,16.10
2023-04-30T18:46:25.553Z,15.20
2023-04-30T18:48:19.465Z,13.50
2023-04-30T18:50:17.114Z,14.50
2023-04-30T18:52:10.174Z,11.90
2023-04-30T18:54:03.121Z,13.40
2023-04-30T18:55:58.729Z,13.80
2023-04-30T18:57:51.672Z,15.40
2023-04-30T18:59:44.513Z,13.50
2023-04-30T19:01:37.619Z,15.10
2023-04-30T19:03:31.003Z,17.00
2023-04-30T19:05:23.975Z,19.80
2023-04-30T19:07:17.131Z,25.70
2023-04-30T19:09:10.401Z,27.40
2023-04-30T19:11:03.435Z,31.40
2023-04-30T19:12:56.301Z,31.00
2023-04-30T19:14:49.228Z,32.70
2023-04-30T19:16:42.114Z,29.10
2023-04-30T19:18:35.270Z,30.50
2023-04-30T19:20:28.174Z,26.50
2023-04-30T19:22:21.019Z,23.30
2023-04-30T19:24:13.984Z,23.40
2023-04-30T19:26:06.830Z,18.40
2023-04-30T19:27:59.659Z,18.40
2023-04-30T19:29:53.583Z,17.70
2023-04-30T19:31:47.316Z,16.90
2023-04-30T19:33:42.707Z,17.70
2023-04-30T19:35:35.553Z,20.30
2023-04-30T19:37:28.395Z,17.50
2023-04-30T19:39:21.241Z,22.80
2023-04-30T19:41:14.099Z,18.30
2023-04-30T19:43:06.942Z,18.10
2023-04-30T19:44:59.789Z,17.20
2023-04-30T19:46:52.729Z,19.20
2023-04-30T19:48:48.359Z,19.30
2023-04-30T19:50:43.214Z,16.10
2023-04-30T19:52:36.489Z,17.70
2023-04-30T19:54:29.541Z,21.70
2023-04-30T19:56:22.488Z,23.10
2023-04-30T19:58:15.537Z,29.50
2023-04-30T20:00:10.023Z,30.90
2023-04-30T20:02:03.298Z,33.70
2023-04-30T20:03:56.456Z,32.70
2023-04-30T20:05:49.582Z,27.10
2023-04-30T20:07:42.940Z,27.50
2023-04-30T20:09:37.424Z,25.70
2023-04-30T20:11:30.484Z,24.60
2023-04-30T20:13:25.071Z,23.80
2023-04-30T20:15:18.012Z,24.70
2023-04-30T20:17:11.063Z,22.00
2023-04-30T20:19:04.418Z,21.10
2023-04-30T20:20:58.586Z,20.90
2023-04-30T20:22:53.805Z,21.30
2023-04-30T20:24:46.641Z,19.60
2023-04-30T20:26:40.522Z,22.80
2023-04-30T20:28:33.766Z,20.20
2023-04-30T20:30:26.612Z,19.40
2023-04-30T20:32:19.586Z,20.40
2023-04-30T20:34:12.814Z,23.60
2023-04-30T20:36:05.771Z,23.00
2023-04-30T20:37:58.724Z,24.10
2023-04-30T20:39:51.560Z,30.30
2023-04-30T20:41:47.975Z,27.20
2023-04-30T20:43:41.655Z,25.10
2023-04-30T20:45:34.505Z,24.70
2023-04-30T20:47:27.370Z,29.40
2023-04-30T20:49:20.599Z,24.80
2023-04-30T20:51:16.118Z,25.50
2023-04-30T20:53:11.067Z,29.20
2023-04-30T20:55:04.874Z,25.60
2023-04-30T20:56:57.719Z,30.40
2023-04-30T20:58:50.565Z,31.60
2023-04-30T21:00:43.522Z,30.10
2023-04-30T21:02:36.554Z,31.80
2023-04-30T21:04:29.866Z,29.90
2023-04-30T21:06:22.829Z,27.30
2023-04-30T21:08:15.654Z,26.00
2023-04-30T21:10:08.979Z,28.00
2023-04-30T21:12:05.115Z,26.90
2023-04-30T21:13:58.049Z,23.80
2023-04-30T21:15:53.353Z,23.00
2023-04-30T21:17:46.539Z,22.40
2023-04-30T21:19:39.450Z,22.00
2023-04-30T21:21:32.499Z,21.70
2023-04-30T21:23:25.451Z,20.80
2023-04-30T21:25:18.294Z,23.30
2023-04-30T21:27:11.447Z,21.40
2023-04-30T21:29:04.400Z,21.60
2023-04-30T21:30:57.265Z,22.50
2023-04-30T21:32:50.310Z,23.80
2023-04-30T21:34:44.159Z,22.90
2023-04-30T21:36:37.686Z,22.80
2023-04-30T21:38:31.492Z,28.60
2023-04-30T21:40:24.447Z,28.10
2023-04-30T21:42:17.287Z,26.90
2023-04-30T21:44:10.235Z,28.80
2023-04-30T21:46:03.570Z,25.10
2023-04-30T21:47:56.598Z,21.90
2023-04-30T21:49:49.486Z,21.70
2023-04-30T21:51:42.545Z,20.30
2023-04-30T21:53:35.383Z,22.40
2023-04-30T21:55:28.230Z,24.00
2023-04-30T21:57:21.579Z,24.00
2023-04-30T21:59:14.429Z,21.80
2023-04-30T22:01:07.426Z,23.30
2023-04-30T22:03:00.358Z,21.40
2023-04-30T22:04:55.600Z,22.90
2023-04-30T22:06:48.543Z,21.10
2023-04-30T22:08:41.724Z,20.80
2023-04-30T22:10:34.575Z,22.40
2023-04-30T22:12:27.312Z,22.00
2023-04-30T22:14:20.382Z,21.40
2023-04-30T22:16:13.213Z,17.00
2023-04-30T22:18:06.100Z,22.20
2023-04-30T22:19:59.208Z,20.30
2023-04-30T22:21:52.053Z,19.40
2023-04-30T22:23:45.005Z,20.20
2023-04-30T22:25:37.958Z,23.10
2023-04-30T22:27:31.614Z,23.20
2023-04-30T22:29:24.466Z,21.00
2023-04-30T22:31:17.449Z,19.70
2023-04-30T22:33:10.900Z,21.20
2023-04-30T22:35:04.726Z,24.60
2023-04-30T22:36:57.546Z,23.80
2023-04-30T22:38:50.636Z,27.10
2023-04-30T22:40:43.582Z,26.70
2023-04-30T22:42:36.741Z,27.00
2023-04-30T22:44:30.301Z,26.80
2023-04-30T22:46:23.210Z,25.20
2023-04-30T22:48:16.473Z,30.40
2023-04-30T22:50:09.966Z,32.10
2023-04-30T22:52:03.020Z,37.70
2023-04-30T22:53:56.791Z,38.50
2023-04-30T22:55:50.448Z,30.90
2023-04-30T22:57:43.291Z,34.30
2023-04-30T22:59:36.136Z,40.60
2023-04-30T23:01:29.064Z,52.10
2023-04-30T23:03:22.042Z,56.70
2023-04-30T23:05:14.888Z,34.70
2023-04-30T23:07:07.930Z,42.00
2023-04-30T23:09:00.992Z,32.70
2023-04-30T23:10:55.736Z,28.50
2023-04-30T23:12:48.724Z,29.50
2023-04-30T23:14:41.776Z,27.90
2023-04-30T23:16:34.696Z,24.80
2023-04-30T23:18:28.074Z,32.20
2023-04-30T23:20:20.924Z,32.70
2023-04-30T23:22:13.872Z,37.40
2023-04-30T23:24:06.728Z,37.30
2023-04-30T23:26:00.484Z,31.60
2023-04-30T23:27:54.049Z,33.80
2023-04-30T23:29:46.901Z,30.30
2023-04-30T23:31:40.201Z,31.30
2023-04-30T23:33:33.097Z,28.10
2023-04-30T23:35:26.048Z,27.20
2023-04-30T23:37:18.889Z,28.00
2023-04-30T23:39:11.663Z,24.70
2023-04-30T23:41:04.587Z,22.20
2023-04-30T23:42:57.427Z,25.50
2023-04-30T23:44:50.282Z,22.70
2023-04-30T23:46:43.260Z,23.20
2023-04-30T23:48:36.374Z,19.80
2023-04-30T23:50:29.169Z,19.10
2023-04-30T23:52:22.000Z,19.40
2023-04-30T23:54:15.116Z,20.00
2023-04-30T23:56:08.677Z,21.00
2023-04-30T23:58:01.651Z,20.90
2023-04-30T23:59:55.427Z,20.40
